Time;durP1;ratioP1;P1;durP2;ratioP2;P2;SDS_P1;SDS_P2;PMS_P1;PMS_P2;Temp;Humidity;BMP_temperature;BMP_pressure;BME280_temperature;BME280_humidity;BME280_pressure;Samples;Min_cycle;Max_cycle;Signal;HPM_P1;HPM_P2
2021/08/16 00:00:09;;;;;;;23.58;4.25;;;;;;;;;;5109622;28;20668;-66
2021/08/16 00:02:35;;;;;;;20.33;3.08;;;;;;;;;;5090923;28;20515;-68
2021/08/16 00:05:02;;;;;;;16.38;3.47;;;;;;;;;;5108936;28;20039;-67
2021/08/16 00:07:28;;;;;;;18.92;4.35;;;;;;;;;;5088003;28;20031;-65
2021/08/16 00:09:54;;;;;;;24.63;4.45;;;;;;;;;;5110067;28;20032;-68
2021/08/16 00:12:20;;;;;;;21.17;4.20;;;;;;;;;;5110002;28;20034;-67
2021/08/16 00:14:46;;;;;;;20.33;3.88;;;;;;;;;;5109435;28;20112;-66
2021/08/16 00:17:12;;;;;;;18.75;4.45;;;;;;;;;;5108053;28;20035;-67
2021/08/16 00:19:39;;;;;;;21.50;4.93;;;;;;;;;;5108051;28;20047;-67
2021/08/16 00:22:06;;;;;;;18.20;3.55;;;;;;;;;;5109741;28;20024;-68
2021/08/16 00:24:32;;;;;;;18.90;3.70;;;;;;;;;;5108186;28;20103;-66
2021/08/16 00:26:59;;;;;;;18.45;3.22;;;;;;;;;;5108495;28;20114;-67
2021/08/16 00:29:25;;;;;;;24.20;4.45;;;;;;;;;;5091131;28;20077;-66
2021/08/16 00:31:51;;;;;;;20.48;3.67;;;;;;;;;;5109322;28;20058;-67
2021/08/16 00:34:17;;;;;;;32.05;4.78;;;;;;;;;;5109356;28;20051;-67
2021/08/16 00:36:43;;;;;;;17.60;3.95;;;;;;;;;;5090185;28;20028;-67
2021/08/16 00:39:09;;;;;;;14.45;3.55;;;;;;;;;;5107593;28;20034;-66
2021/08/16 00:41:36;;;;;;;20.02;4.80;;;;;;;;;;5109644;28;20024;-66
2021/08/16 00:44:04;;;;;;;19.90;3.80;;;;;;;;;;5109184;28;20509;-68
2021/08/16 00:46:30;;;;;;;21.65;5.88;;;;;;;;;;5088947;28;20035;-66
2021/08/16 00:48:56;;;;;;;24.67;3.38;;;;;;;;;;5090080;28;20466;-67
2021/08/16 00:51:22;;;;;;;24.05;3.88;;;;;;;;;;5109668;28;20027;-67
2021/08/16 00:53:49;;;;;;;16.45;3.47;;;;;;;;;;5109203;28;20046;-67
2021/08/16 00:56:15;;;;;;;17.65;3.55;;;;;;;;;;5108090;28;20055;-68
2021/08/16 00:58:42;;;;;;;17.27;3.95;;;;;;;;;;5106262;28;20077;-68
2021/08/16 01:01:08;;;;;;;19.38;3.85;;;;;;;;;;5106917;28;20043;-68
2021/08/16 01:03:34;;;;;;;18.15;3.45;;;;;;;;;;5090735;28;20012;-67
2021/08/16 01:06:00;;;;;;;20.45;4.70;;;;;;;;;;5109915;28;20023;-67
2021/08/16 01:08:26;;;;;;;17.60;4.53;;;;;;;;;;5113105;28;20072;-66
2021/08/16 01:10:53;;;;;;;21.67;4.30;;;;;;;;;;5094238;28;20039;-68
2021/08/16 01:13:19;;;;;;;19.42;5.03;;;;;;;;;;5094541;28;20620;-68
2021/08/16 01:15:54;;;;;;;14.90;5.43;;;;;;;;;;5112124;28;20027;-67
2021/08/16 01:18:20;;;;;;;18.85;3.88;;;;;;;;;;5111721;28;20412;-68
2021/08/16 01:20:47;;;;;;;17.73;3.35;;;;;;;;;;5112956;28;20076;-68
2021/08/16 01:23:13;;;;;;;15.88;3.35;;;;;;;;;;5112940;28;20023;-68
2021/08/16 01:25:41;;;;;;;21.45;4.38;;;;;;;;;;5111692;28;20477;-68
2021/08/16 01:28:07;;;;;;;18.77;4.45;;;;;;;;;;5110723;28;20019;-67
2021/08/16 01:30:33;;;;;;;14.43;3.97;;;;;;;;;;5093606;28;20034;-67
2021/08/16 01:32:59;;;;;;;22.35;4.07;;;;;;;;;;5112352;28;20023;-67
2021/08/16 01:35:25;;;;;;;20.67;4.60;;;;;;;;;;5111095;28;20051;-68
2021/08/16 01:37:51;;;;;;;18.55;4.18;;;;;;;;;;5093489;28;20035;-69
2021/08/16 01:40:17;;;;;;;16.83;3.33;;;;;;;;;;5112760;28;20020;-67
2021/08/16 01:42:43;;;;;;;14.25;3.58;;;;;;;;;;5113110;28;20019;-66
2021/08/16 01:45:10;;;;;;;19.15;3.70;;;;;;;;;;5110051;28;20016;-68
2021/08/16 01:47:36;;;;;;;14.73;3.30;;;;;;;;;;5112655;27;21628;-67
2021/08/16 01:50:02;;;;;;;18.10;3.83;;;;;;;;;;5108598;27;20020;-67
2021/08/16 01:52:28;;;;;;;20.10;3.97;;;;;;;;;;5109461;28;20024;-67
2021/08/16 01:54:54;;;;;;;23.02;4.25;;;;;;;;;;5092350;28;20027;-67
2021/08/16 01:57:20;;;;;;;19.70;3.85;;;;;;;;;;5110979;28;20548;-68
2021/08/16 01:59:46;;;;;;;20.35;4.75;;;;;;;;;;5111627;28;20028;-67
2021/08/16 02:02:12;;;;;;;18.60;3.70;;;;;;;;;;5111837;28;20020;-67
2021/08/16 02:04:38;;;;;;;16.50;3.75;;;;;;;;;;5112078;28;20031;-67
2021/08/16 02:07:04;;;;;;;13.15;3.13;;;;;;;;;;5109139;27;20035;-66
2021/08/16 02:09:30;;;;;;;15.60;3.42;;;;;;;;;;5112032;28;20126;-67
2021/08/16 02:11:56;;;;;;;14.52;3.30;;;;;;;;;;5112073;28;20024;-67
2021/08/16 02:14:22;;;;;;;13.77;3.13;;;;;;;;;;5109255;28;20028;-66
2021/08/16 02:16:48;;;;;;;18.85;4.20;;;;;;;;;;5091629;28;20024;-67
2021/08/16 02:19:14;;;;;;;15.10;3.50;;;;;;;;;;5111583;28;20032;-67
2021/08/16 02:21:40;;;;;;;10.52;3.08;;;;;;;;;;5111815;28;20028;-68
2021/08/16 02:24:06;;;;;;;13.45;3.47;;;;;;;;;;5107019;28;20028;-67
2021/08/16 02:26:32;;;;;;;18.02;5.32;;;;;;;;;;5110829;28;20069;-66
2021/08/16 02:28:58;;;;;;;17.63;3.90;;;;;;;;;;5110745;28;20027;-67
2021/08/16 02:31:24;;;;;;;11.73;3.05;;;;;;;;;;5111156;28;20031;-66
2021/08/16 02:33:51;;;;;;;17.40;3.95;;;;;;;;;;5111838;28;20035;-67
2021/08/16 02:36:17;;;;;;;18.27;4.15;;;;;;;;;;5110471;28;20028;-67
2021/08/16 02:38:43;;;;;;;17.38;3.45;;;;;;;;;;5111266;28;20447;-66
2021/08/16 02:41:10;;;;;;;17.90;3.95;;;;;;;;;;5110427;28;20531;-67
2021/08/16 02:43:36;;;;;;;18.75;3.78;;;;;;;;;;5111250;28;20047;-65
2021/08/16 02:46:02;;;;;;;23.52;3.88;;;;;;;;;;5110176;27;20092;-67
2021/08/16 02:48:28;;;;;;;18.00;3.80;;;;;;;;;;5110516;28;20023;-67
2021/08/16 02:50:54;;;;;;;14.50;3.58;;;;;;;;;;5110130;28;20051;-67
2021/08/16 02:53:20;;;;;;;19.98;3.63;;;;;;;;;;5110820;28;20087;-67
2021/08/16 02:55:46;;;;;;;13.90;3.38;;;;;;;;;;5109513;28;20081;-68
2021/08/16 02:58:12;;;;;;;20.38;4.28;;;;;;;;;;5110385;28;20516;-67
2021/08/16 03:00:38;;;;;;;18.50;4.30;;;;;;;;;;5109621;28;20027;-68
2021/08/16 03:03:04;;;;;;;16.63;3.10;;;;;;;;;;5110766;28;20023;-68
2021/08/16 03:05:30;;;;;;;19.15;3.80;;;;;;;;;;5109421;28;20043;-67
2021/08/16 03:07:56;;;;;;;15.05;3.58;;;;;;;;;;5110436;28;20080;-66
2021/08/16 03:10:22;;;;;;;11.80;3.70;;;;;;;;;;5110612;28;20031;-66
2021/08/16 03:12:48;;;;;;;17.60;3.65;;;;;;;;;;5110640;28;20035;-68
2021/08/16 03:15:14;;;;;;;18.52;4.45;;;;;;;;;;5108950;28;20035;-67
2021/08/16 03:17:41;;;;;;;15.52;3.28;;;;;;;;;;5110747;28;20024;-67
2021/08/16 03:20:07;;;;;;;19.33;4.25;;;;;;;;;;5091766;28;20024;-66
2021/08/16 03:22:34;;;;;;;17.75;4.05;;;;;;;;;;5111034;28;20043;-67
2021/08/16 03:25:00;;;;;;;10.38;3.00;;;;;;;;;;5109886;28;20024;-67
2021/08/16 03:27:26;;;;;;;19.25;4.10;;;;;;;;;;5109732;28;20046;-67
2021/08/16 03:29:52;;;;;;;22.73;3.92;;;;;;;;;;5109568;28;20624;-67
2021/08/16 03:32:18;;;;;;;19.08;3.95;;;;;;;;;;5110499;28;20050;-66
2021/08/16 03:34:44;;;;;;;16.17;4.07;;;;;;;;;;5106276;28;20070;-67
2021/08/16 03:37:10;;;;;;;16.95;3.70;;;;;;;;;;5090221;28;20092;-67
2021/08/16 03:39:36;;;;;;;21.45;3.92;;;;;;;;;;5110374;28;20020;-68
2021/08/16 03:42:02;;;;;;;18.55;4.47;;;;;;;;;;5106263;28;20015;-67
2021/08/16 03:44:28;;;;;;;19.88;5.13;;;;;;;;;;5110344;28;20106;-68
2021/08/16 03:46:54;;;;;;;19.17;4.35;;;;;;;;;;5108615;28;20016;-68
2021/08/16 03:49:20;;;;;;;17.80;4.82;;;;;;;;;;5109574;28;20027;-68
2021/08/16 03:51:46;;;;;;;24.98;4.53;;;;;;;;;;5110107;28;20032;-67
2021/08/16 03:54:12;;;;;;;16.00;3.83;;;;;;;;;;5106882;28;20530;-67
2021/08/16 03:56:38;;;;;;;20.50;4.72;;;;;;;;;;5109047;28;20061;-68
2021/08/16 03:59:04;;;;;;;16.45;3.95;;;;;;;;;;5109328;28;20020;-68
2021/08/16 04:01:30;;;;;;;16.27;4.20;;;;;;;;;;5091673;28;20019;-68
2021/08/16 04:04:00;;;;;;;17.30;3.67;;;;;;;;;;5091598;28;20024;-68
2021/08/16 04:06:26;;;;;;;16.63;5.20;;;;;;;;;;5108708;28;20032;-68
2021/08/16 04:08:52;;;;;;;14.48;3.60;;;;;;;;;;5091040;28;20015;-67
2021/08/16 04:11:19;;;;;;;17.05;3.97;;;;;;;;;;5109724;28;20042;-68
2021/08/16 04:13:45;;;;;;;17.08;3.40;;;;;;;;;;5108541;28;20031;-66
2021/08/16 04:16:11;;;;;;;21.50;4.07;;;;;;;;;;5108684;28;20027;-67
2021/08/16 04:18:37;;;;;;;18.13;3.92;;;;;;;;;;5109712;28;20027;-67
2021/08/16 04:21:03;;;;;;;16.27;3.60;;;;;;;;;;5109575;28;20068;-66
2021/08/16 04:23:29;;;;;;;17.33;4.18;;;;;;;;;;5090370;28;20040;-67
2021/08/16 04:25:55;;;;;;;19.38;3.95;;;;;;;;;;5109154;28;20107;-67
2021/08/16 04:28:21;;;;;;;19.08;4.40;;;;;;;;;;5109747;28;20035;-66
2021/08/16 04:30:48;;;;;;;14.82;3.70;;;;;;;;;;5109759;28;20028;-68
2021/08/16 04:33:14;;;;;;;12.85;3.92;;;;;;;;;;5109485;28;20024;-67
2021/08/16 04:35:40;;;;;;;15.05;3.88;;;;;;;;;;5108600;28;20044;-67
2021/08/16 04:38:06;;;;;;;21.17;4.88;;;;;;;;;;5109630;28;20043;-66
2021/08/16 04:40:32;;;;;;;15.38;4.40;;;;;;;;;;5110237;28;20024;-68
2021/08/16 04:42:58;;;;;;;17.83;3.50;;;;;;;;;;5110618;28;20489;-67
2021/08/16 04:45:25;;;;;;;16.25;4.28;;;;;;;;;;5093955;27;20436;-69
2021/08/16 04:47:51;;;;;;;14.02;3.13;;;;;;;;;;5113215;28;20034;-69
2021/08/16 04:50:17;;;;;;;28.52;4.97;;;;;;;;;;5092218;28;20123;-75
2021/08/16 04:52:43;;;;;;;23.08;4.30;;;;;;;;;;5112646;28;20031;-71
2021/08/16 04:55:09;;;;;;;22.63;3.83;;;;;;;;;;5110946;28;20047;-72
2021/08/16 04:57:36;;;;;;;19.85;4.60;;;;;;;;;;5112917;28;20031;-71
2021/08/16 05:00:04;;;;;;;15.90;3.55;;;;;;;;;;5112713;28;20561;-71
2021/08/16 05:02:30;;;;;;;20.05;3.75;;;;;;;;;;5094281;28;20031;-70
2021/08/16 05:05:04;;;;;;;9.75;3.38;;;;;;;;;;5106660;28;20055;-70
2021/08/16 05:07:30;;;;;;;18.50;3.67;;;;;;;;;;5111530;28;20023;-70
2021/08/16 05:09:56;;;;;;;13.15;3.97;;;;;;;;;;5113196;28;20045;-70
2021/08/16 05:12:22;;;;;;;12.13;3.80;;;;;;;;;;5112704;28;20401;-71
2021/08/16 05:14:48;;;;;;;8.65;2.92;;;;;;;;;;5110271;27;20536;-71
2021/08/16 05:17:14;;;;;;;8.63;3.08;;;;;;;;;;5111532;28;20027;-71
2021/08/16 05:19:40;;;;;;;14.85;4.28;;;;;;;;;;5113271;28;20018;-70
2021/08/16 05:22:07;;;;;;;14.00;3.67;;;;;;;;;;5110690;28;20024;-71
2021/08/16 05:24:33;;;;;;;17.38;4.72;;;;;;;;;;5093865;28;20035;-71
2021/08/16 05:26:59;;;;;;;12.77;5.22;;;;;;;;;;5111987;28;20547;-72
2021/08/16 05:29:25;;;;;;;13.35;5.45;;;;;;;;;;5112839;28;20019;-70
2021/08/16 05:31:51;;;;;;;15.35;5.60;;;;;;;;;;5112145;28;20051;-72
2021/08/16 05:34:18;;;;;;;13.25;6.00;;;;;;;;;;5111602;28;20459;-70
2021/08/16 05:36:44;;;;;;;25.08;7.72;;;;;;;;;;5110819;28;20031;-71
2021/08/16 05:39:10;;;;;;;11.40;5.65;;;;;;;;;;5110769;28;20086;-72
2021/08/16 05:41:36;;;;;;;10.98;6.30;;;;;;;;;;5110334;28;20012;-70
2021/08/16 05:44:02;;;;;;;14.75;7.00;;;;;;;;;;5111771;28;20012;-72
2021/08/16 05:46:28;;;;;;;17.45;7.43;;;;;;;;;;5106226;27;20022;-71
2021/08/16 05:48:54;;;;;;;11.20;5.50;;;;;;;;;;5094245;28;20039;-73
2021/08/16 05:51:20;;;;;;;15.88;5.07;;;;;;;;;;5091586;28;20233;-73
2021/08/16 05:53:46;;;;;;;9.52;4.20;;;;;;;;;;5108063;28;20077;-73
2021/08/16 05:56:12;;;;;;;12.25;3.50;;;;;;;;;;5090727;28;20082;-72
2021/08/16 05:58:38;;;;;;;9.27;3.58;;;;;;;;;;5091477;28;20031;-72
2021/08/16 06:01:04;;;;;;;9.40;4.88;;;;;;;;;;5105567;28;20030;-72
2021/08/16 06:03:30;;;;;;;12.23;4.60;;;;;;;;;;5111333;28;20023;-74
2021/08/16 06:05:56;;;;;;;14.60;5.78;;;;;;;;;;5112226;28;20020;-72
2021/08/16 06:08:22;;;;;;;17.95;6.57;;;;;;;;;;5112363;28;20080;-72
2021/08/16 06:10:48;;;;;;;16.35;6.22;;;;;;;;;;5093587;28;20024;-75
2021/08/16 06:13:14;;;;;;;25.30;6.97;;;;;;;;;;5110226;28;20074;-73
2021/08/16 06:15:41;;;;;;;13.88;6.53;;;;;;;;;;5110262;28;20081;-72
2021/08/16 06:18:07;;;;;;;18.02;6.93;;;;;;;;;;5113000;28;20023;-72
2021/08/16 06:20:33;;;;;;;12.85;5.47;;;;;;;;;;5112897;28;20027;-73
2021/08/16 06:22:59;;;;;;;19.50;7.60;;;;;;;;;;5112406;28;20039;-72
2021/08/16 06:25:25;;;;;;;18.30;6.97;;;;;;;;;;5104821;28;20729;-73
2021/08/16 06:27:51;;;;;;;21.80;6.63;;;;;;;;;;5112226;28;20028;-72
2021/08/16 06:30:17;;;;;;;16.85;7.47;;;;;;;;;;5111454;28;20031;-74
2021/08/16 06:32:45;;;;;;;17.05;6.28;;;;;;;;;;5112754;28;20402;-73
2021/08/16 06:35:14;;;;;;;24.92;7.57;;;;;;;;;;5111171;28;20035;-72
2021/08/16 06:37:40;;;;;;;19.58;6.72;;;;;;;;;;5094328;28;20039;-73
2021/08/16 06:40:07;;;;;;;18.65;6.45;;;;;;;;;;5089413;28;20490;-72
2021/08/16 06:42:34;;;;;;;19.33;5.97;;;;;;;;;;5093631;28;20115;-73
2021/08/16 06:45:01;;;;;;;15.15;5.25;;;;;;;;;;5093453;28;20393;-73
2021/08/16 06:47:27;;;;;;;14.88;6.18;;;;;;;;;;5111641;27;20132;-72
2021/08/16 06:49:53;;;;;;;20.05;6.20;;;;;;;;;;5110696;28;20038;-72
2021/08/16 06:52:19;;;;;;;17.92;5.63;;;;;;;;;;5112339;28;20448;-71
2021/08/16 06:54:45;;;;;;;19.80;5.00;;;;;;;;;;5108541;28;20023;-73
2021/08/16 06:57:11;;;;;;;15.73;5.10;;;;;;;;;;5108064;28;20026;-73
2021/08/16 06:59:37;;;;;;;15.52;4.68;;;;;;;;;;5109272;28;20024;-72
2021/08/16 07:02:03;;;;;;;13.88;5.25;;;;;;;;;;5111591;28;20031;-72
2021/08/16 07:04:29;;;;;;;12.13;5.47;;;;;;;;;;5111505;28;20110;-71
2021/08/16 07:06:56;;;;;;;24.02;6.00;;;;;;;;;;5110496;28;20493;-70
2021/08/16 07:09:22;;;;;;;14.70;5.28;;;;;;;;;;5107069;28;20035;-69
2021/08/16 07:11:48;;;;;;;27.73;6.30;;;;;;;;;;5110826;28;20035;-70
2021/08/16 07:14:14;;;;;;;16.45;4.95;;;;;;;;;;5093118;28;20027;-70
2021/08/16 07:16:40;;;;;;;16.48;5.28;;;;;;;;;;5110123;28;20392;-70
2021/08/16 07:19:06;;;;;;;21.45;4.80;;;;;;;;;;5111360;28;20030;-70
2021/08/16 07:21:32;;;;;;;22.98;5.80;;;;;;;;;;5111183;28;20098;-70
2021/08/16 07:23:58;;;;;;;21.25;5.45;;;;;;;;;;5109194;28;20015;-69
2021/08/16 07:26:24;;;;;;;15.80;5.07;;;;;;;;;;5105531;28;20051;-70
2021/08/16 07:28:50;;;;;;;16.00;4.70;;;;;;;;;;5108494;28;20069;-69
2021/08/16 07:31:16;;;;;;;20.50;5.25;;;;;;;;;;5109694;28;20024;-69
2021/08/16 07:33:42;;;;;;;12.60;5.25;;;;;;;;;;5090003;28;20409;-69
2021/08/16 07:36:08;;;;;;;18.23;4.63;;;;;;;;;;5090135;28;20036;-71
2021/08/16 07:38:34;;;;;;;14.90;4.78;;;;;;;;;;5111227;28;20027;-69
2021/08/16 07:41:00;;;;;;;15.27;5.00;;;;;;;;;;5093062;28;20051;-70
2021/08/16 07:43:27;;;;;;;13.63;5.57;;;;;;;;;;5111142;28;20028;-70
2021/08/16 07:45:53;;;;;;;17.02;6.57;;;;;;;;;;5110136;28;20019;-69
2021/08/16 07:48:19;;;;;;;12.48;5.53;;;;;;;;;;5111523;28;20038;-71
2021/08/16 07:50:45;;;;;;;14.88;6.68;;;;;;;;;;5095311;28;20020;-69
2021/08/16 07:53:11;;;;;;;20.30;6.65;;;;;;;;;;5100643;28;20027;-70
2021/08/16 07:55:37;;;;;;;19.25;7.07;;;;;;;;;;5102853;28;20110;-69
2021/08/16 07:58:03;;;;;;;20.02;7.70;;;;;;;;;;5107530;28;20405;-69
2021/08/16 08:00:29;;;;;;;20.95;8.43;;;;;;;;;;5111122;28;20031;-70
2021/08/16 08:02:55;;;;;;;19.90;8.95;;;;;;;;;;5109603;28;20020;-70
2021/08/16 08:05:22;;;;;;;25.27;10.90;;;;;;;;;;5108582;28;20040;-72
2021/08/16 08:07:48;;;;;;;23.00;10.43;;;;;;;;;;5091386;28;20038;-71
2021/08/16 08:10:15;;;;;;;33.60;12.38;;;;;;;;;;5110349;28;20046;-69
2021/08/16 08:12:41;;;;;;;24.58;13.02;;;;;;;;;;5091634;28;20066;-70
2021/08/16 08:15:08;;;;;;;28.17;13.07;;;;;;;;;;5108152;28;20024;-69
2021/08/16 08:17:34;;;;;;;28.42;13.10;;;;;;;;;;5095329;28;20019;-70
2021/08/16 08:20:01;;;;;;;30.85;14.93;;;;;;;;;;5112747;28;20038;-70
2021/08/16 08:22:27;;;;;;;32.72;12.95;;;;;;;;;;5114488;28;20024;-70
2021/08/16 08:24:54;;;;;;;34.15;15.55;;;;;;;;;;5105273;28;20102;-71
2021/08/16 08:27:20;;;;;;;31.75;17.25;;;;;;;;;;5112093;28;20024;-70
2021/08/16 08:29:46;;;;;;;34.08;17.20;;;;;;;;;;5113477;28;20088;-70
2021/08/16 08:32:12;;;;;;;35.28;17.10;;;;;;;;;;5106243;28;20107;-69
2021/08/16 08:34:38;;;;;;;45.30;19.38;;;;;;;;;;5088293;28;20039;-70
2021/08/16 08:37:10;;;;;;;32.92;16.25;;;;;;;;;;5079316;28;20504;-70
2021/08/16 08:39:37;;;;;;;38.83;19.92;;;;;;;;;;5114406;28;20250;-70
2021/08/16 08:42:03;;;;;;;41.67;18.23;;;;;;;;;;5113488;28;20042;-70
2021/08/16 08:44:30;;;;;;;31.45;17.40;;;;;;;;;;5114740;28;20027;-71
2021/08/16 08:46:56;;;;;;;34.88;17.52;;;;;;;;;;5107257;28;20403;-71
2021/08/16 08:49:22;;;;;;;44.17;16.80;;;;;;;;;;5113603;28;20038;-72
2021/08/16 08:51:49;;;;;;;39.78;19.05;;;;;;;;;;5111933;28;20023;-69
2021/08/16 08:54:16;;;;;;;35.38;17.80;;;;;;;;;;5113023;28;20177;-70
2021/08/16 08:56:42;;;;;;;32.20;16.23;;;;;;;;;;5110338;28;20032;-70
2021/08/16 08:59:08;;;;;;;39.58;18.20;;;;;;;;;;5085402;28;20028;-70
2021/08/16 09:01:34;;;;;;;36.40;18.92;;;;;;;;;;5104047;28;20008;-70
2021/08/16 09:04:00;;;;;;;35.33;17.05;;;;;;;;;;5107479;28;20473;-70
2021/08/16 09:06:30;;;;;;;41.53;17.83;;;;;;;;;;5104310;28;20016;-70
2021/08/16 09:08:57;;;;;;;31.67;16.27;;;;;;;;;;5109902;28;20156;-70
2021/08/16 09:11:25;;;;;;;34.38;16.33;;;;;;;;;;5091887;28;20019;-72
2021/08/16 09:14:00;;;;;;;33.47;18.13;;;;;;;;;;5111742;28;20024;-70
2021/08/16 09:16:31;;;;;;;37.20;19.92;;;;;;;;;;5109304;28;20024;-70
2021/08/16 09:18:57;;;;;;;37.60;17.40;;;;;;;;;;5110276;28;20031;-68
2021/08/16 09:21:39;;;;;;;35.22;16.60;;;;;;;;;;5109482;28;20027;-69
2021/08/16 09:24:05;;;;;;;;;;;;;;;;;;5112391;28;20488;-70
2021/08/16 09:26:32;;;;;;;40.65;17.83;;;;;;;;;;5109506;28;19918;-69
2021/08/16 09:29:11;;;;;;;37.28;19.10;;;;;;;;;;5110496;28;20040;-69
2021/08/16 09:31:37;;;;;;;37.58;19.13;;;;;;;;;;5111359;28;20027;-71
2021/08/16 09:34:03;;;;;;;37.50;18.52;;;;;;;;;;5092245;28;20135;-68
2021/08/16 09:36:39;;;;;;;40.17;18.40;;;;;;;;;;5089310;28;20031;-72
2021/08/16 09:39:18;;;;;;;37.25;18.50;;;;;;;;;;5110685;28;20047;-70
2021/08/16 09:41:44;;;;;;;39.35;18.85;;;;;;;;;;5102726;28;20122;-70
2021/08/16 09:44:12;;;;;;;37.42;18.77;;;;;;;;;;5108537;28;20020;-68
2021/08/16 09:46:38;;;;;;;29.75;16.92;;;;;;;;;;5109482;28;20028;-69
2021/08/16 09:49:05;;;;;;;36.78;17.38;;;;;;;;;;5110031;28;20027;-70
2021/08/16 09:51:32;;;;;;;33.38;17.70;;;;;;;;;;5087689;28;20026;-70
2021/08/16 09:53:58;;;;;;;35.50;17.33;;;;;;;;;;5091414;28;20075;-69
2021/08/16 09:56:24;;;;;;;40.38;19.52;;;;;;;;;;5109337;28;20106;-70
2021/08/16 09:58:50;;;;;;;42.17;19.13;;;;;;;;;;5109390;28;20061;-71
2021/08/16 10:01:17;;;;;;;38.05;18.40;;;;;;;;;;5110793;28;20069;-69
2021/08/16 10:03:43;;;;;;;37.97;19.42;;;;;;;;;;5090657;28;20245;-70
2021/08/16 10:06:12;;;;;;;37.55;19.70;;;;;;;;;;5110636;28;20445;-68
2021/08/16 10:08:53;;;;;;;39.20;19.50;;;;;;;;;;5110779;28;20012;-69
2021/08/16 10:11:20;;;;;;;37.17;17.52;;;;;;;;;;5108053;28;20016;-70
2021/08/16 10:13:51;;;;;;;37.65;19.55;;;;;;;;;;5107914;28;20110;-69
2021/08/16 10:16:18;;;;;;;40.85;19.20;;;;;;;;;;5110104;28;20153;-69
2021/08/16 10:19:03;;;;;;;43.85;21.70;;;;;;;;;;5090028;28;20019;-69
2021/08/16 10:21:30;;;;;;;42.35;20.63;;;;;;;;;;5108465;28;20091;-69
2021/08/16 10:23:56;;;;;;;35.90;18.73;;;;;;;;;;5109029;28;20515;-68
2021/08/16 10:26:26;;;;;;;34.55;16.77;;;;;;;;;;5110207;28;20024;-70
2021/08/16 10:29:00;;;;;;;39.83;17.48;;;;;;;;;;5109801;28;20058;-70
2021/08/16 10:31:31;;;;;;;41.45;19.23;;;;;;;;;;5090734;28;20035;-69
2021/08/16 10:33:57;;;;;;;39.47;19.23;;;;;;;;;;5110180;28;20039;-71
2021/08/16 10:36:24;;;;;;;37.08;19.58;;;;;;;;;;5110601;28;20070;-69
2021/08/16 10:38:51;;;;;;;36.70;17.15;;;;;;;;;;5109819;28;20039;-69
2021/08/16 10:41:24;;;;;;;42.45;20.88;;;;;;;;;;5109298;28;20024;-71
2021/08/16 10:43:50;;;;;;;47.65;21.45;;;;;;;;;;5105136;28;20026;-69
2021/08/16 10:46:23;;;;;;;44.72;20.58;;;;;;;;;;5108990;28;20389;-68
2021/08/16 10:48:59;;;;;;;50.00;18.98;;;;;;;;;;5109229;28;20454;-69
2021/08/16 10:51:25;;;;;;;38.83;19.45;;;;;;;;;;5107652;28;20112;-68
2021/08/16 10:53:53;;;;;;;47.58;21.67;;;;;;;;;;5106548;28;20077;-70
2021/08/16 10:56:19;;;;;;;48.30;20.58;;;;;;;;;;5107768;28;20036;-70
2021/08/16 10:58:46;;;;;;;43.63;19.80;;;;;;;;;;5105771;28;20426;-69
2021/08/16 11:01:28;;;;;;;38.38;19.70;;;;;;;;;;5094269;28;20031;-71
2021/08/16 11:03:55;;;;;;;40.78;20.08;;;;;;;;;;5094326;28;20114;-68
2021/08/16 11:06:21;;;;;;;40.30;20.17;;;;;;;;;;5105023;28;20045;-69
2021/08/16 11:08:47;;;;;;;34.03;16.83;;;;;;;;;;5090415;28;20036;-69
2021/08/16 11:11:13;;;;;;;35.17;19.13;;;;;;;;;;5108548;28;20020;-69
2021/08/16 11:13:39;;;;;;;52.13;21.95;;;;;;;;;;5101324;28;20042;-69
2021/08/16 11:16:07;;;;;;;47.17;21.27;;;;;;;;;;5104424;28;20015;-69
2021/08/16 11:18:33;;;;;;;42.40;20.80;;;;;;;;;;5089780;28;20035;-68
2021/08/16 11:21:00;;;;;;;49.38;23.20;;;;;;;;;;5107031;28;20545;-69
2021/08/16 11:23:26;;;;;;;36.70;20.90;;;;;;;;;;5107082;28;20031;-68
2021/08/16 11:25:53;;;;;;;45.42;20.55;;;;;;;;;;5106773;28;20023;-70
2021/08/16 11:28:24;;;;;;;40.50;20.25;;;;;;;;;;5100213;28;20031;-69
2021/08/16 11:30:50;;;;;;;39.33;20.55;;;;;;;;;;5107484;28;20034;-69
2021/08/16 11:33:23;;;;;;;45.47;20.85;;;;;;;;;;5105014;28;20041;-68
2021/08/16 11:35:49;;;;;;;46.22;21.80;;;;;;;;;;5090716;28;20058;-70
2021/08/16 11:38:16;;;;;;;42.60;19.13;;;;;;;;;;5108465;28;20400;-71
2021/08/16 11:40:42;;;;;;;50.78;22.98;;;;;;;;;;5111112;28;20489;-69
2021/08/16 11:43:08;;;;;;;50.92;19.83;;;;;;;;;;5089462;28;20519;-69
2021/08/16 11:45:37;;;;;;;42.88;21.67;;;;;;;;;;5110344;28;20030;-71
2021/08/16 11:48:04;;;;;;;47.00;22.08;;;;;;;;;;5110708;28;20030;-70
2021/08/16 11:50:31;;;;;;;43.88;19.45;;;;;;;;;;5106728;28;20031;-69
2021/08/16 11:52:57;;;;;;;41.58;20.67;;;;;;;;;;5106370;28;20110;-70
2021/08/16 11:55:30;;;;;;;39.53;16.27;;;;;;;;;;5091555;28;20027;-69
2021/08/16 11:57:57;;;;;;;23.33;10.38;;;;;;;;;;5108472;28;20023;-69
2021/08/16 12:00:27;;;;;;;27.65;8.20;;;;;;;;;;5107448;28;20046;-70
2021/08/16 12:02:57;;;;;;;29.13;7.65;;;;;;;;;;5106870;28;20024;-68
2021/08/16 12:05:24;;;;;;;17.42;6.32;;;;;;;;;;5108924;28;20031;-67
2021/08/16 12:07:50;;;;;;;24.63;7.15;;;;;;;;;;5109540;28;20038;-68
2021/08/16 12:10:18;;;;;;;16.80;6.78;;;;;;;;;;5109628;28;20032;-68
2021/08/16 12:12:44;;;;;;;17.30;5.93;;;;;;;;;;5089483;28;20565;-69
2021/08/16 12:15:17;;;;;;;23.17;7.65;;;;;;;;;;5109796;28;20028;-68
2021/08/16 12:17:44;;;;;;;24.65;6.78;;;;;;;;;;5110396;28;20328;-69
2021/08/16 12:20:14;;;;;;;27.35;8.82;;;;;;;;;;5108537;28;20040;-68
2021/08/16 12:22:53;;;;;;;26.05;9.05;;;;;;;;;;5088246;28;20019;-69
2021/08/16 12:25:20;;;;;;;23.75;8.15;;;;;;;;;;5103978;28;20166;-69
2021/08/16 12:27:59;;;;;;;17.75;7.78;;;;;;;;;;5108699;28;20274;-68
2021/08/16 12:30:35;;;;;;;19.35;7.07;;;;;;;;;;5108923;28;20030;-70
2021/08/16 12:33:07;;;;;;;20.00;8.68;;;;;;;;;;5106423;28;20064;-69
2021/08/16 12:35:33;;;;;;;38.80;8.15;;;;;;;;;;5109270;28;20048;-70
2021/08/16 12:38:01;;;;;;;15.40;6.35;;;;;;;;;;5091401;28;20539;-70
2021/08/16 12:40:27;;;;;;;20.20;6.43;;;;;;;;;;5109625;28;20016;-68
2021/08/16 12:43:11;;;;;;;16.23;5.38;;;;;;;;;;5107527;28;20481;-68
2021/08/16 12:45:37;;;;;;;16.67;5.28;;;;;;;;;;5091484;28;20447;-69
2021/08/16 12:48:07;;;;;;;24.95;5.30;;;;;;;;;;5091066;28;20024;-69
2021/08/16 12:50:34;;;;;;;17.70;4.97;;;;;;;;;;5090201;28;20915;-68
2021/08/16 12:53:01;;;;;;;18.17;4.85;;;;;;;;;;5089097;28;20435;-68
2021/08/16 12:55:27;;;;;;;21.10;4.45;;;;;;;;;;5090680;28;20622;-68
2021/08/16 12:57:53;;;;;;;18.50;4.28;;;;;;;;;;5108971;28;20501;-69
2021/08/16 13:00:19;;;;;;;14.18;4.30;;;;;;;;;;5091271;28;20033;-69
2021/08/16 13:02:46;;;;;;;15.07;4.55;;;;;;;;;;5110311;28;20061;-69
2021/08/16 13:05:12;;;;;;;26.67;5.53;;;;;;;;;;5113813;28;20061;-69
2021/08/16 13:07:38;;;;;;;18.10;5.07;;;;;;;;;;5113634;28;20024;-69
2021/08/16 13:10:05;;;;;;;21.20;4.85;;;;;;;;;;5110295;28;20476;-68
2021/08/16 13:12:31;;;;;;;23.33;4.85;;;;;;;;;;5104230;28;20106;-68
2021/08/16 13:14:58;;;;;;;22.25;4.95;;;;;;;;;;5112032;28;20026;-69
2021/08/16 13:17:24;;;;;;;21.85;5.43;;;;;;;;;;5112957;28;20027;-71
2021/08/16 13:19:50;;;;;;;18.88;4.93;;;;;;;;;;5105257;28;20038;-69
2021/08/16 13:22:17;;;;;;;27.08;6.35;;;;;;;;;;5082426;28;20032;-68
2021/08/16 13:24:43;;;;;;;20.77;5.95;;;;;;;;;;5101348;28;20034;-70
2021/08/16 13:27:09;;;;;;;22.20;6.47;;;;;;;;;;5109965;28;20059;-70
2021/08/16 13:29:35;;;;;;;22.73;5.97;;;;;;;;;;5110987;28;20054;-71
2021/08/16 13:32:01;;;;;;;22.55;5.63;;;;;;;;;;5108867;28;20023;-70
2021/08/16 13:34:27;;;;;;;20.05;6.38;;;;;;;;;;5092487;28;20048;-70
2021/08/16 13:36:54;;;;;;;26.85;8.77;;;;;;;;;;5112077;28;20089;-73
2021/08/16 13:39:21;;;;;;;28.23;7.03;;;;;;;;;;5109452;28;20024;-70
2021/08/16 13:41:47;;;;;;;21.00;6.75;;;;;;;;;;5108998;28;20092;-70
2021/08/16 13:44:13;;;;;;;25.55;7.70;;;;;;;;;;5110132;28;20093;-68
2021/08/16 13:46:39;;;;;;;23.52;6.10;;;;;;;;;;5111088;28;20019;-69
2021/08/16 13:49:05;;;;;;;22.23;7.63;;;;;;;;;;5110374;28;20051;-70
2021/08/16 13:51:31;;;;;;;34.70;8.25;;;;;;;;;;5109489;28;20012;-78
2021/08/16 13:53:58;;;;;;;19.75;6.38;;;;;;;;;;5109667;28;20020;-73
2021/08/16 13:56:24;;;;;;;21.67;6.47;;;;;;;;;;5110878;28;20057;-72
2021/08/16 13:58:50;;;;;;;23.33;6.68;;;;;;;;;;5092488;28;20509;-72
2021/08/16 14:01:16;;;;;;;22.30;6.32;;;;;;;;;;5111521;28;20023;-71
2021/08/16 14:03:42;;;;;;;23.40;6.30;;;;;;;;;;5108765;28;20012;-71
2021/08/16 14:06:08;;;;;;;29.08;6.03;;;;;;;;;;5092670;28;20027;-72
2021/08/16 14:08:34;;;;;;;27.17;6.60;;;;;;;;;;5111103;28;20031;-73
2021/08/16 14:11:01;;;;;;;19.33;5.72;;;;;;;;;;5111213;28;20019;-72
2021/08/16 14:13:29;;;;;;;25.00;6.85;;;;;;;;;;5105752;28;20038;-72
2021/08/16 14:15:55;;;;;;;20.48;5.68;;;;;;;;;;5108205;28;20031;-71
2021/08/16 14:18:21;;;;;;;21.33;6.32;;;;;;;;;;5109999;28;20073;-72
2021/08/16 14:20:47;;;;;;;21.92;6.53;;;;;;;;;;5111204;28;20020;-73
2021/08/16 14:23:14;;;;;;;16.85;6.30;;;;;;;;;;5090343;28;20028;-72